Time;durP1;ratioP1;P1;durP2;ratioP2;P2;SDS_P1;SDS_P2;PMS_P1;PMS_P2;Temp;Humidity;BMP_temperature;BMP_pressure;BME280_temperature;BME280_humidity;BME280_pressure;Samples;Min_cycle;Max_cycle;Signal;HPM_P1;HPM_P2
2023/05/07 00:01:32;;;;;;;6.95;3.67;;;;;;;24.40;53.77;99515.41;5091947;28;20107;-68
2023/05/07 00:03:57;;;;;;;6.10;3.20;;;;;;;24.43;53.53;99521.47;5084803;28;20040;-68
2023/05/07 00:06:23;;;;;;;7.15;3.22;;;;;;;24.40;53.39;99515.41;5079466;28;20021;-67
2023/05/07 00:08:48;;;;;;;6.40;3.40;;;;;;;24.39;53.41;99519.06;5071563;28;20032;-69
2023/05/07 00:11:13;;;;;;;7.60;3.50;;;;;;;24.40;53.60;99515.41;5072104;28;20484;-68
2023/05/07 00:13:39;;;;;;;6.22;2.88;;;;;;;24.39;53.69;99521.72;5071901;28;20021;-69
2023/05/07 00:16:04;;;;;;;5.50;3.10;;;;;;;24.39;53.71;99512.88;5075490;28;20479;-69
2023/05/07 00:18:30;;;;;;;7.13;3.28;;;;;;;24.39;53.72;99512.88;5091886;28;20062;-68
2023/05/07 00:20:56;;;;;;;5.60;3.10;;;;;;;24.37;53.69;99507.63;5091923;28;20392;-68
2023/05/07 00:23:22;;;;;;;4.10;2.50;;;;;;;24.38;53.88;99516.50;5080935;28;20036;-68
2023/05/07 00:25:47;;;;;;;8.68;3.40;;;;;;;24.36;53.64;99508.59;5074400;28;20031;-68
2023/05/07 00:28:12;;;;;;;7.03;3.40;;;;;;;24.36;53.93;99513.94;5092256;28;20016;-68
2023/05/07 00:30:38;;;;;;;6.20;3.10;;;;;;;24.36;53.74;99513.94;5095853;28;20028;-68
2023/05/07 00:33:03;;;;;;;5.70;3.20;;;;;;;24.35;53.72;99508.75;5096013;28;20103;-68
2023/05/07 00:35:29;;;;;;;6.85;3.33;;;;;;;24.35;53.69;99509.56;5096063;28;20115;-69
2023/05/07 00:37:55;;;;;;;6.80;3.00;;;;;;;24.33;53.86;99508.84;5095833;28;20031;-68
2023/05/07 00:40:20;;;;;;;6.47;3.13;;;;;;;24.32;53.79;99508.97;5082484;28;20451;-69
2023/05/07 00:42:46;;;;;;;5.78;3.17;;;;;;;24.32;53.73;99501.81;5075525;28;20031;-68
2023/05/07 00:45:13;;;;;;;6.30;3.47;;;;;;;24.33;53.54;99500.84;5075446;28;20021;-68
2023/05/07 00:47:39;;;;;;;6.25;2.88;;;;;;;24.33;53.65;99503.50;5074257;28;20465;-69
2023/05/07 00:50:06;;;;;;;5.55;2.90;;;;;;;24.30;53.61;99509.06;5075229;28;20024;-68
2023/05/07 00:52:31;;;;;;;5.80;2.78;;;;;;;24.31;53.49;99508.09;5075030;28;20120;-68
2023/05/07 00:54:57;;;;;;;5.47;3.03;;;;;;;24.31;53.68;99509.94;5093886;28;20103;-67
2023/05/07 00:57:25;;;;;;;5.93;2.95;;;;;;;24.29;53.83;99502.03;5095451;28;20024;-68
2023/05/07 00:59:51;;;;;;;5.32;2.92;;;;;;;24.31;53.81;99507.25;5095508;28;20034;-68
2023/05/07 01:02:17;;;;;;;6.40;2.78;;;;;;;24.30;53.78;99508.22;5095454;28;20480;-68
2023/05/07 01:04:42;;;;;;;4.60;2.67;;;;;;;24.29;53.63;99510.03;5095037;28;20048;-69
2023/05/07 01:07:08;;;;;;;7.22;2.78;;;;;;;24.29;53.71;99517.16;5094911;28;20032;-68
2023/05/07 01:09:35;;;;;;;6.97;3.47;;;;;;;24.30;53.87;99514.41;5095361;28;20035;-68
2023/05/07 01:12:00;;;;;;;4.75;2.88;;;;;;;24.29;53.83;99510.03;5095146;28;20490;-67
2023/05/07 01:14:26;;;;;;;4.97;2.70;;;;;;;24.26;53.65;99516.44;5095393;28;20028;-66
2023/05/07 01:16:53;;;;;;;4.20;2.47;;;;;;;24.27;53.68;99514.66;5094949;28;20597;-69
2023/05/07 01:19:19;;;;;;;5.40;2.63;;;;;;;24.25;53.88;99511.22;5094951;28;20071;-68
2023/05/07 01:21:47;;;;;;;6.18;3.08;;;;;;;24.25;53.62;99516.56;5094777;28;20020;-68
2023/05/07 01:24:14;;;;;;;6.20;2.88;;;;;;;24.24;53.71;99521.06;5094830;28;20036;-68
2023/05/07 01:26:40;;;;;;;7.75;3.20;;;;;;;24.24;53.70;99509.53;5095020;28;20096;-69
2023/05/07 01:29:05;;;;;;;3.75;2.10;;;;;;;24.23;53.69;99516.69;5094923;28;20476;-68
2023/05/07 01:31:34;;;;;;;7.00;2.67;;;;;;;24.23;53.71;99514.03;5094805;28;20020;-69
2023/05/07 01:34:01;;;;;;;5.50;2.78;;;;;;;24.21;53.71;99518.59;5094910;28;20028;-69
2023/05/07 01:36:28;;;;;;;7.10;2.90;;;;;;;24.21;53.81;99515.09;5092598;28;20395;-67
2023/05/07 01:38:54;;;;;;;5.85;2.67;;;;;;;24.20;53.91;99513.38;5094636;28;20030;-69
2023/05/07 01:41:21;;;;;;;6.22;2.42;;;;;;;24.21;53.85;99515.09;5082683;28;20104;-69
2023/05/07 01:43:47;;;;;;;5.90;2.10;;;;;;;24.19;53.92;99511.69;5074472;28;20032;-67
2023/05/07 01:46:12;;;;;;;6.57;2.83;;;;;;;24.19;53.86;99514.34;5074388;28;20035;-69
2023/05/07 01:48:38;;;;;;;6.78;2.88;;;;;;;24.17;53.84;99516.28;5074418;28;20516;-68
2023/05/07 01:51:05;;;;;;;5.45;2.70;;;;;;;24.16;53.68;99522.59;5073955;28;20032;-67
2023/05/07 01:53:45;;;;;;;4.82;2.30;;;;;;;24.16;53.84;99522.59;5074088;28;20029;-68
2023/05/07 01:56:10;;;;;;;7.18;2.88;;;;;;;24.16;53.83;99520.75;5079995;28;20012;-69
2023/05/07 01:58:36;;;;;;;5.80;2.72;;;;;;;24.15;53.84;99521.72;5094205;28;20016;-69
2023/05/07 02:01:01;;;;;;;6.38;2.95;;;;;;;24.16;53.85;99527.91;5092860;28;20020;-67
2023/05/07 02:03:27;;;;;;;6.65;2.80;;;;;;;24.15;53.64;99523.56;5094137;28;20131;-67
2023/05/07 02:05:52;;;;;;;6.80;2.97;;;;;;;24.13;53.71;99524.50;5093906;28;20150;-67
2023/05/07 02:08:17;;;;;;;6.35;2.67;;;;;;;24.12;53.65;99528.13;5094288;28;20380;-69
2023/05/07 02:10:43;;;;;;;6.07;2.85;;;;;;;24.11;53.69;99522.91;5093842;28;20020;-67
2023/05/07 02:13:08;;;;;;;7.43;2.70;;;;;;;24.12;53.59;99529.97;5094078;28;20027;-68
2023/05/07 02:15:34;;;;;;;5.57;2.08;;;;;;;24.12;53.75;99516.63;5093709;28;20099;-68
2023/05/07 02:18:07;;;;;;;7.82;2.20;;;;;;;24.08;53.58;99521.34;5093850;28;20035;-68
2023/05/07 02:20:33;;;;;;;8.38;2.53;;;;;;;24.08;53.81;99521.34;5093881;28;20025;-68
2023/05/07 02:22:58;;;;;;;8.20;2.85;;;;;;;24.08;53.71;99509.81;5093836;28;20160;-68
2023/05/07 02:25:24;;;;;;;5.85;2.90;;;;;;;24.07;53.72;99508.94;5093746;28;20108;-69
2023/05/07 02:27:49;;;;;;;7.40;2.90;;;;;;;24.06;53.84;99506.38;5093810;28;20024;-68
2023/05/07 02:30:15;;;;;;;7.97;2.63;;;;;;;24.05;53.90;99500.19;5093603;28;20055;-67
2023/05/07 02:32:40;;;;;;;6.57;2.28;;;;;;;24.06;53.72;99512.56;5092189;28;20127;-68
2023/05/07 02:35:06;;;;;;;6.78;2.53;;;;;;;24.06;54.06;99504.56;5093528;28;20020;-69
2023/05/07 02:37:31;;;;;;;7.38;2.25;;;;;;;24.05;54.00;99500.19;5093522;28;20022;-68
2023/05/07 02:39:57;;;;;;;5.07;2.22;;;;;;;24.03;53.86;99502.13;5093558;28;20400;-69
2023/05/07 02:42:22;;;;;;;5.75;2.60;;;;;;;24.02;53.72;99495.06;5093356;28;20027;-69
2023/05/07 02:44:48;;;;;;;8.38;2.15;;;;;;;24.00;54.01;99500.53;5093507;28;20028;-68
2023/05/07 02:47:15;;;;;;;5.57;2.30;;;;;;;24.03;53.92;99499.47;5125297;27;20028;-68
2023/05/07 02:49:40;;;;;;;6.20;2.20;;;;;;;23.99;53.89;99496.19;5093434;28;20016;-68
2023/05/07 02:52:06;;;;;;;7.07;2.50;;;;;;;24.02;53.99;99497.75;5093392;28;20027;-68
2023/05/07 02:54:32;;;;;;;7.45;2.75;;;;;;;24.00;54.03;99487.22;5093347;28;20043;-69
2023/05/07 02:56:57;;;;;;;5.22;2.58;;;;;;;23.98;53.87;99483.78;5093173;28;20151;-68
2023/05/07 02:59:24;;;;;;;4.85;2.30;;;;;;;23.99;54.02;99487.31;5093165;28;20031;-68
2023/05/07 03:01:49;;;;;;;6.75;2.80;;;;;;;23.98;53.99;99493.63;5092757;28;20093;-68
2023/05/07 03:04:15;;;;;;;5.38;1.98;;;;;;;23.97;53.99;99498.09;5092792;28;20086;-69
2023/05/07 03:06:40;;;;;;;6.65;2.35;;;;;;;23.98;53.87;99493.63;5093088;28;20476;-68
2023/05/07 03:09:07;;;;;;;7.32;2.72;;;;;;;23.95;53.91;99494.69;5092796;28;20019;-68
2023/05/07 03:11:32;;;;;;;7.00;2.33;;;;;;;23.96;54.00;99498.19;5093024;28;20031;-69
2023/05/07 03:13:57;;;;;;;10.00;2.47;;;;;;;23.96;53.92;99500.84;5091444;28;20028;-68
2023/05/07 03:16:23;;;;;;;5.47;2.33;;;;;;;23.95;54.10;99504.50;5092315;28;20141;-69
2023/05/07 03:18:48;;;;;;;5.18;1.88;;;;;;;23.95;53.96;99508.00;5092905;28;20051;-69
2023/05/07 03:21:14;;;;;;;4.95;2.13;;;;;;;23.95;53.98;99510.69;5092716;28;20491;-68
2023/05/07 03:23:39;;;;;;;8.70;2.35;;;;;;;23.93;53.86;99506.44;5092785;28;20023;-69
2023/05/07 03:26:04;;;;;;;6.72;2.35;;;;;;;23.93;53.93;99517.09;5092783;28;20058;-68
2023/05/07 03:28:30;;;;;;;5.15;2.10;;;;;;;23.93;53.94;99527.75;5092518;28;20020;-68
2023/05/07 03:30:55;;;;;;;5.32;2.03;;;;;;;23.92;53.83;99542.88;5092247;28;20028;-68
2023/05/07 03:33:21;;;;;;;7.13;2.83;;;;;;;23.93;53.68;99538.41;5092651;28;20024;-67
2023/05/07 03:35:46;;;;;;;5.85;2.40;;;;;;;23.89;53.84;99531.59;5091110;28;20365;-68
2023/05/07 03:38:12;;;;;;;6.22;2.65;;;;;;;23.90;53.67;99533.28;5092572;28;20058;-67
2023/05/07 03:40:37;;;;;;;5.55;2.47;;;;;;;23.89;53.63;99542.25;5088681;28;20031;-69
2023/05/07 03:43:03;;;;;;;7.90;3.35;;;;;;;23.89;53.95;99537.78;5092443;28;20028;-68
2023/05/07 03:45:28;;;;;;;6.78;3.65;;;;;;;23.89;53.94;99531.59;5092235;28;20036;-68
2023/05/07 03:47:53;;;;;;;7.80;3.83;;;;;;;23.89;53.74;99520.94;5092194;28;20047;-68
2023/05/07 03:50:19;;;;;;;8.75;3.70;;;;;;;23.90;53.67;99533.28;5085083;28;20461;-68
2023/05/07 03:52:45;;;;;;;5.25;3.17;;;;;;;23.89;53.63;99521.78;5090417;28;20024;-67
2023/05/07 03:55:11;;;;;;;6.70;3.90;;;;;;;23.89;53.68;99531.59;5092098;28;20052;-68
2023/05/07 03:57:36;;;;;;;8.20;3.63;;;;;;;23.86;53.72;99530.84;5090851;28;20055;-68
2023/05/07 04:00:03;;;;;;;7.72;4.10;;;;;;;23.85;53.66;99530.97;5088786;28;20043;-68
2023/05/07 04:02:29;;;;;;;7.20;3.63;;;;;;;23.86;53.82;99533.53;5091992;28;20037;-69
2023/05/07 04:04:54;;;;;;;6.80;4.13;;;;;;;23.83;53.61;99540.88;5092113;28;20147;-68
2023/05/07 04:07:20;;;;;;;7.47;4.07;;;;;;;23.82;53.62;99548.00;5092259;28;20039;-68
2023/05/07 04:09:45;;;;;;;7.00;3.80;;;;;;;23.80;53.75;99555.28;5089943;28;20027;-68
2023/05/07 04:12:10;;;;;;;7.50;4.40;;;;;;;23.81;53.75;99546.31;5071983;28;20021;-67
2023/05/07 04:14:36;;;;;;;7.57;4.40;;;;;;;23.76;53.87;99553.78;5071624;28;20028;-68
2023/05/07 04:17:02;;;;;;;7.50;4.03;;;;;;;23.77;53.78;99558.16;5071827;28;20098;-67
2023/05/07 04:19:28;;;;;;;8.52;3.90;;;;;;;23.79;53.63;99558.91;5071699;28;20055;-67
2023/05/07 04:21:53;;;;;;;6.88;4.10;;;;;;;23.79;53.62;99553.59;5071914;28;20476;-68
2023/05/07 04:24:19;;;;;;;9.38;4.32;;;;;;;23.79;53.76;99558.91;5074815;28;20364;-68
2023/05/07 04:26:44;;;;;;;8.70;4.53;;;;;;;23.76;53.70;99551.13;5091891;28;20020;-69
2023/05/07 04:29:09;;;;;;;8.27;4.22;;;;;;;23.79;53.63;99558.91;5091510;28;20395;-68
2023/05/07 04:31:35;;;;;;;9.00;4.55;;;;;;;23.78;53.86;99551.84;5091938;28;20027;-68
2023/05/07 04:34:00;;;;;;;7.95;4.15;;;;;;;23.77;53.76;99555.47;5091986;28;20185;-68
2023/05/07 04:36:27;;;;;;;8.60;4.05;;;;;;;23.73;53.95;99554.03;5091867;28;20035;-68
2023/05/07 04:38:53;;;;;;;7.90;3.88;;;;;;;23.73;53.63;99565.50;5085970;28;20028;-67
2023/05/07 04:41:19;;;;;;;6.55;3.63;;;;;;;23.73;53.89;99562.84;5071639;28;20226;-69
2023/05/07 04:43:45;;;;;;;8.13;3.80;;;;;;;23.76;53.74;99569.78;5071152;28;20033;-69
2023/05/07 04:46:10;;;;;;;8.00;4.03;;;;;;;23.73;53.60;99570.84;5071552;28;20100;-66
2023/05/07 04:48:36;;;;;;;7.63;3.45;;;;;;;23.72;53.70;99579.78;5071724;28;20039;-68
2023/05/07 04:51:01;;;;;;;6.60;3.47;;;;;;;23.75;53.51;99578.72;5075172;28;20034;-66
2023/05/07 04:53:27;;;;;;;7.55;3.40;;;;;;;23.71;53.74;99588.75;5090367;28;20071;-68
2023/05/07 04:55:56;;;;;;;7.40;3.60;;;;;;;23.71;53.52;99588.75;5091788;28;20055;-69
2023/05/07 04:58:22;;;;;;;7.22;3.22;;;;;;;23.73;53.68;99601.97;5091603;28;20051;-68
2023/05/07 05:00:48;;;;;;;7.45;3.00;;;;;;;23.71;53.62;99594.09;5091554;28;20048;-68
2023/05/07 05:03:13;;;;;;;8.45;3.30;;;;;;;23.70;53.56;99591.53;5091545;28;20156;-69
2023/05/07 05:05:38;;;;;;;6.70;2.83;;;;;;;23.70;53.55;99603.03;5091773;28;20396;-68
2023/05/07 05:08:04;;;;;;;7.82;3.45;;;;;;;23.69;53.61;99600.47;5090333;28;20034;-69
2023/05/07 05:10:29;;;;;;;8.50;3.20;;;;;;;23.69;53.57;99606.63;5091848;28;20024;-67
2023/05/07 05:12:54;;;;;;;6.28;2.70;;;;;;;23.69;53.55;99605.81;5094764;28;20024;-69
2023/05/07 05:15:20;;;;;;;7.47;3.00;;;;;;;23.67;53.71;99607.75;5095241;28;20033;-68
2023/05/07 05:17:45;;;;;;;7.35;2.80;;;;;;;23.69;53.80;99616.47;5095067;28;20031;-69
2023/05/07 05:20:11;;;;;;;6.72;3.08;;;;;;;23.66;53.51;99620.19;5095161;28;20507;-68
2023/05/07 05:22:37;;;;;;;6.50;2.85;;;;;;;23.66;53.61;99617.53;5094890;28;20040;-68
2023/05/07 05:25:02;;;;;;;8.18;3.13;;;;;;;23.67;53.63;99618.38;5094988;28;20036;-67
2023/05/07 05:27:29;;;;;;;9.95;3.20;;;;;;;23.63;53.48;99619.56;5094562;28;20408;-68
2023/05/07 05:29:54;;;;;;;7.07;2.92;;;;;;;23.65;53.43;99620.28;5094707;28;20032;-68
2023/05/07 05:32:19;;;;;;;6.97;2.85;;;;;;;23.66;53.68;99617.53;5094984;28;20027;-67
2023/05/07 05:34:45;;;;;;;6.38;2.53;;;;;;;23.64;53.68;99623.91;5094807;28;20556;-69
2023/05/07 05:37:10;;;;;;;7.13;2.80;;;;;;;23.63;53.41;99619.56;5094669;28;20024;-68
2023/05/07 05:39:36;;;;;;;6.47;2.60;;;;;;;23.65;53.59;99628.28;5094779;28;20024;-68
2023/05/07 05:42:01;;;;;;;8.00;2.65;;;;;;;23.64;53.60;99634.56;5094120;28;20028;-68
2023/05/07 05:44:27;;;;;;;5.45;2.22;;;;;;;23.62;53.45;99637.34;5094641;28;20016;-68
2023/05/07 05:46:55;;;;;;;9.13;3.17;;;;;;;23.63;53.44;99646.19;5094759;28;20101;-68
2023/05/07 05:49:20;;;;;;;6.82;2.55;;;;;;;23.62;53.34;99647.16;5094426;28;20016;-68
2023/05/07 05:51:46;;;;;;;6.85;2.63;;;;;;;23.63;53.26;99651.53;5094715;28;20042;-68
2023/05/07 05:54:11;;;;;;;5.80;2.63;;;;;;;23.62;53.66;99652.50;5094470;28;20373;-68
2023/05/07 05:56:37;;;;;;;6.82;2.63;;;;;;;23.60;53.43;99655.25;5093853;28;20082;-67
2023/05/07 05:59:03;;;;;;;7.75;2.50;;;;;;;23.60;53.41;99656.09;5094340;28;20552;-68
2023/05/07 06:01:28;;;;;;;8.45;3.10;;;;;;;23.58;53.53;99668.66;5094149;28;20114;-67
2023/05/07 06:03:54;;;;;;;7.22;2.05;;;;;;;23.58;53.38;99671.34;5087332;28;20037;-68
2023/05/07 06:06:19;;;;;;;5.88;2.10;;;;;;;23.58;53.45;99674.00;5074084;28;20026;-68
2023/05/07 06:08:45;;;;;;;6.50;2.35;;;;;;;23.56;53.33;99670.59;5073877;28;20032;-68
2023/05/07 06:11:11;;;;;;;5.95;2.60;;;;;;;23.56;53.32;99675.06;5073616;28;20074;-69
2023/05/07 06:13:36;;;;;;;5.82;2.33;;;;;;;23.57;53.26;99674.09;5074022;28;20046;-68
2023/05/07 06:16:02;;;;;;;6.43;2.58;;;;;;;23.54;53.53;99677.81;5073912;28;20051;-67
2023/05/07 06:18:27;;;;;;;4.80;2.15;;;;;;;23.54;53.39;99677.81;5081922;28;20015;-68
2023/05/07 06:20:53;;;;;;;7.63;2.75;;;;;;;23.53;53.34;99678.78;5093651;28;20491;-68
2023/05/07 06:23:18;;;;;;;6.55;2.15;;;;;;;23.55;53.34;99678.69;5093855;28;20063;-68
2023/05/07 06:25:50;;;;;;;6.25;2.25;;;;;;;23.52;53.52;99679.75;5093719;28;20468;-68
2023/05/07 06:28:15;;;;;;;7.28;2.50;;;;;;;23.51;53.38;99672.72;5093761;28;20088;-67
2023/05/07 06:30:41;;;;;;;5.18;2.28;;;;;;;23.52;53.45;99681.53;5093702;28;20099;-69
2023/05/07 06:33:06;;;;;;;7.13;2.40;;;;;;;23.51;53.61;99678.03;5093534;28;20549;-68
2023/05/07 06:35:32;;;;;;;7.82;2.72;;;;;;;23.48;53.57;99688.88;5093816;28;20016;-67
2023/05/07 06:37:57;;;;;;;7.90;2.70;;;;;;;23.48;53.42;99690.72;5083012;28;20488;-68
2023/05/07 06:40:23;;;;;;;19.58;8.98;;;;;;;23.48;53.67;99683.56;5072598;28;20103;-68
2023/05/07 06:42:48;;;;;;;9.32;3.63;;;;;;;23.46;53.56;99680.16;5073224;28;20191;-68
2023/05/07 06:45:14;;;;;;;14.27;5.22;;;;;;;23.46;53.45;99689.03;5073169;28;20112;-68
2023/05/07 06:47:39;;;;;;;12.00;3.35;;;;;;;23.44;53.33;99690.06;5073052;28;20028;-68
2023/05/07 06:50:05;;;;;;;10.30;4.32;;;;;;;23.44;53.60;99704.22;5073146;28;20027;-69
2023/05/07 06:52:30;;;;;;;7.10;2.97;;;;;;;23.41;53.67;99701.78;5073050;28;20024;-69
2023/05/07 06:54:56;;;;;;;11.60;2.75;;;;;;;23.40;53.42;99699.22;5072828;28;20028;-69
2023/05/07 06:57:21;;;;;;;9.55;2.67;;;;;;;23.37;53.51;99702.94;5088642;28;20027;-69
2023/05/07 06:59:47;;;;;;;8.40;2.70;;;;;;;23.40;53.58;99702.75;5093301;28;20017;-69
2023/05/07 07:02:12;;;;;;;7.45;2.55;;;;;;;23.40;53.50;99701.88;5093295;28;20024;-68
2023/05/07 07:04:38;;;;;;;12.18;3.80;;;;;;;23.42;53.48;99699.97;5093094;28;20066;-68
2023/05/07 07:07:03;;;;;;;9.77;3.15;;;;;;;23.43;53.48;99701.66;5091970;28;20411;-68
2023/05/07 07:09:28;;;;;;;6.78;2.63;;;;;;;23.45;53.28;99707.75;5092689;28;20060;-68
2023/05/07 07:11:54;;;;;;;8.20;2.88;;;;;;;23.43;53.32;99704.31;5092957;28;20013;-68
2023/05/07 07:14:20;;;;;;;6.45;2.53;;;;;;;23.44;53.41;99698.06;5092913;28;20056;-69
2023/05/07 07:16:46;;;;;;;12.25;3.30;;;;;;;23.43;53.22;99706.97;5090800;28;20020;-69
2023/05/07 07:19:12;;;;;;;10.50;2.95;;;;;;;23.46;53.38;99707.66;5091499;28;20016;-68
2023/05/07 07:21:37;;;;;;;8.90;2.40;;;;;;;23.44;53.19;99712.22;5092813;28;20020;-68
2023/05/07 07:24:03;;;;;;;5.28;2.13;;;;;;;23.45;53.37;99715.75;5092084;28;20452;-68
2023/05/07 07:26:28;;;;;;;9.18;3.10;;;;;;;23.41;53.29;99714.25;5092616;28;20024;-68
2023/05/07 07:28:54;;;;;;;8.70;2.72;;;;;;;23.41;53.47;99714.25;5092644;28;20020;-68
2023/05/07 07:31:19;;;;;;;8.88;2.85;;;;;;;23.41;53.46;99714.25;5090382;28;20048;-68
2023/05/07 07:33:44;;;;;;;6.50;2.60;;;;;;;23.39;53.54;99718.81;5091601;28;20052;-67
2023/05/07 07:36:10;;;;;;;5.82;2.15;;;;;;;23.41;53.53;99720.44;5092345;28;20502;-67
2023/05/07 07:38:35;;;;;;;6.28;2.70;;;;;;;23.39;53.42;99721.50;5092046;28;20056;-67
2023/05/07 07:41:01;;;;;;;8.40;2.17;;;;;;;23.39;53.37;99721.50;5092203;28;20369;-68
2023/05/07 07:43:27;;;;;;;6.68;2.25;;;;;;;23.38;53.35;99723.28;5092452;28;20021;-67
2023/05/07 07:45:53;;;;;;;7.68;2.20;;;;;;;23.37;53.46;99721.59;5092105;28;20022;-66
2023/05/07 07:48:18;;;;;;;14.27;5.90;;;;;;;23.36;53.45;99721.69;5092327;28;20020;-68
2023/05/07 07:50:43;;;;;;;14.63;6.10;;;;;;;23.36;53.47;99727.00;5091958;28;20016;-66
2023/05/07 07:53:09;;;;;;;20.42;8.65;;;;;;;23.36;53.59;99727.00;5090398;28;20028;-66
2023/05/07 07:55:38;;;;;;;15.23;6.05;;;;;;;23.37;53.43;99728.69;5092250;28;20023;-67
2023/05/07 07:58:04;;;;;;;9.55;3.10;;;;;;;23.33;53.51;99738.72;5092084;28;20095;-67
2023/05/07 08:00:29;;;;;;;7.60;2.30;;;;;;;23.32;53.50;99731.69;5092181;28;20059;-68
2023/05/07 08:02:54;;;;;;;8.75;3.22;;;;;;;23.32;53.48;99731.69;5091814;28;20051;-69
2023/05/07 08:05:20;;;;;;;8.57;2.63;;;;;;;23.33;53.47;99734.25;5092088;28;20044;-68
2023/05/07 08:07:46;;;;;;;9.50;2.80;;;;;;;23.31;53.49;99736.19;5091653;28;20024;-68
2023/05/07 08:10:12;;;;;;;10.50;3.20;;;;;;;23.33;53.48;99734.25;5092195;28;20020;-67
2023/05/07 08:12:37;;;;;;;7.97;2.78;;;;;;;23.35;53.30;99736.81;5091835;28;20476;-67
2023/05/07 08:15:03;;;;;;;8.75;2.80;;;;;;;23.32;53.49;99737.88;5091993;28;20032;-67
2023/05/07 08:17:28;;;;;;;8.43;2.67;;;;;;;23.32;53.46;99732.56;5091684;28;20028;-67
2023/05/07 08:19:53;;;;;;;8.30;2.80;;;;;;;23.32;53.35;99735.22;5091809;28;20021;-67
2023/05/07 08:22:19;;;;;;;7.60;2.53;;;;;;;23.33;53.59;99738.72;5080458;28;20361;-69
2023/05/07 08:24:44;;;;;;;8.02;2.35;;;;;;;23.31;53.46;99741.50;5078093;28;20024;-67
2023/05/07 08:27:10;;;;;;;5.93;2.30;;;;;;;23.33;53.33;99744.03;5092102;28;20099;-68
2023/05/07 08:29:35;;;;;;;7.97;2.47;;;;;;;23.31;53.49;99752.16;5091782;28;20020;-68
2023/05/07 08:32:00;;;;;;;5.55;2.28;;;;;;;23.27;53.58;99750.59;5091725;28;20027;-68
2023/05/07 08:34:26;;;;;;;6.28;2.47;;;;;;;23.24;53.56;99740.16;5091794;28;20079;-68
2023/05/07 08:36:51;;;;;;;7.50;2.50;;;;;;;23.28;53.54;99754.09;5091314;28;20029;-68
2023/05/07 08:39:17;;;;;;;5.00;2.00;;;;;;;23.28;53.50;99746.97;5091947;28;20028;-68
2023/05/07 08:41:48;;;;;;;7.45;2.58;;;;;;;23.25;53.51;99752.50;5091855;28;20479;-69
2023/05/07 08:44:14;;;;;;;8.68;2.58;;;;;;;23.25;53.49;99751.66;5091422;28;20028;-68
2023/05/07 08:46:41;;;;;;;10.85;3.00;;;;;;;23.24;53.70;99753.44;5094053;28;20031;-68
2023/05/07 08:49:07;;;;;;;14.15;3.13;;;;;;;23.23;53.55;99757.06;5095384;28;20027;-67
2023/05/07 08:51:33;;;;;;;7.20;2.92;;;;;;;23.25;53.66;99768.47;5092046;28;20016;-67
2023/05/07 08:54:01;;;;;;;8.23;2.72;;;;;;;23.29;53.55;99771.81;5075327;28;20033;-69
2023/05/07 08:56:26;;;;;;;10.00;3.28;;;;;;;23.30;53.27;99770.84;5083123;28;20016;-66
2023/05/07 08:58:56;;;;;;;11.85;4.68;;;;;;;23.31;53.40;99773.44;5095421;28;20157;-69
2023/05/07 09:01:21;;;;;;;10.50;3.15;;;;;;;23.32;53.61;99764.50;5095513;28;20027;-69
2023/05/07 09:03:47;;;;;;;12.95;3.72;;;;;;;23.36;53.34;99765.16;5095140;28;20040;-68
2023/05/07 09:06:12;;;;;;;8.32;3.28;;;;;;;23.38;53.29;99768.56;5094742;28;20028;-67
2023/05/07 09:08:38;;;;;;;9.32;3.03;;;;;;;23.37;53.54;99761.53;5095185;28;20027;-68
2023/05/07 09:11:03;;;;;;;23.10;10.35;;;;;;;23.40;53.37;99772.00;5095405;28;20024;-68
2023/05/07 09:13:29;;;;;;;10.40;3.20;;;;;;;23.42;53.41;99769.19;5095270;28;20145;-68
2023/05/07 09:15:55;;;;;;;11.35;2.90;;;;;;;23.41;53.36;99763.03;5092184;28;20021;-67
2023/05/07 09:18:20;;;;;;;12.65;3.65;;;;;;;23.38;53.61;99765.06;5095496;28;20032;-67
2023/05/07 09:20:46;;;;;;;13.98;4.03;;;;;;;23.37;53.45;99765.97;5094713;28;20028;-67
2023/05/07 09:23:11;;;;;;;14.27;4.18;;;;;;;23.39;53.51;99766.75;5078542;28;20031;-68
2023/05/07 09:25:37;;;;;;;14.10;4.50;;;;;;;23.40;53.44;99765.78;5074673;28;20035;-68
2023/05/07 09:28:04;;;;;;;15.07;4.32;;;;;;;23.40;53.35;99766.66;5074868;28;20106;-68
2023/05/07 09:30:31;;;;;;;12.27;4.05;;;;;;;23.37;53.59;99766.84;5074577;28;20036;-68
2023/05/07 09:32:59;;;;;;;14.70;4.45;;;;;;;23.36;53.65;99772.28;5088647;28;20020;-67
2023/05/07 09:35:27;;;;;;;15.07;4.05;;;;;;;23.36;53.74;99764.28;5094077;28;20035;-68
2023/05/07 09:37:56;;;;;;;13.73;4.30;;;;;;;23.35;53.84;99758.13;5087017;28;20108;-68
2023/05/07 09:40:23;;;;;;;14.40;4.60;;;;;;;23.33;53.91;99763.53;5074581;28;20036;-68
2023/05/07 09:42:49;;;;;;;11.57;4.18;;;;;;;23.32;54.01;99769.81;5087068;28;20059;-68
2023/05/07 09:45:16;;;;;;;11.45;3.85;;;;;;;23.37;53.89;99771.31;5094576;28;20028;-68
2023/05/07 09:47:45;;;;;;;15.38;4.28;;;;;;;23.33;53.97;99771.53;5092776;28;20476;-72
2023/05/07 09:50:14;;;;;;;10.85;3.63;;;;;;;23.35;53.98;99768.78;5094546;28;20024;-65
2023/05/07 09:52:42;;;;;;;8.80;3.22;;;;;;;23.39;54.01;99772.06;5094612;28;20480;-66
2023/05/07 09:55:08;;;;;;;12.60;3.58;;;;;;;23.39;53.94;99769.41;5094629;28;20035;-66
2023/05/07 09:57:35;;;;;;;10.23;3.58;;;;;;;23.39;53.95;99769.41;5094101;28;20020;-66
2023/05/07 10:00:07;;;;;;;10.35;3.13;;;;;;;23.40;53.74;99776.44;5094451;28;20028;-67
2023/05/07 10:02:35;;;;;;;10.07;3.22;;;;;;;23.41;53.92;99778.16;5093644;28;20023;-66
2023/05/07 10:05:01;;;;;;;9.02;3.47;;;;;;;23.37;53.91;99777.50;5094294;28;20107;-66
2023/05/07 10:07:27;;;;;;;11.60;3.10;;;;;;;23.39;53.84;99780.06;5094376;28;20020;-65
2023/05/07 10:09:54;;;;;;;10.57;3.28;;;;;;;23.35;53.84;99784.75;5094070;28;20088;-65
2023/05/07 10:12:21;;;;;;;7.63;2.92;;;;;;;23.39;53.74;99785.41;5094357;28;20027;-66
2023/05/07 10:14:48;;;;;;;9.85;2.95;;;;;;;23.39;53.54;99793.38;5093948;28;20028;-66
2023/05/07 10:17:16;;;;;;;10.60;3.70;;;;;;;23.38;53.75;99789.03;5093747;28;20033;-66
2023/05/07 10:19:44;;;;;;;8.88;2.90;;;;;;;23.38;53.68;99795.19;5094023;28;20499;-66
2023/05/07 10:22:09;;;;;;;8.35;3.05;;;;;;;23.36;53.98;99801.56;5087225;28;20028;-65
2023/05/07 10:24:36;;;;;;;9.70;3.20;;;;;;;23.31;53.95;99797.41;5073528;28;20036;-67
2023/05/07 10:27:07;;;;;;;10.18;3.10;;;;;;;23.32;54.21;99799.13;5073446;28;20025;-67
2023/05/07 10:30:00;;;;;;;11.60;3.20;;;;;;;23.31;54.24;99794.75;5073693;28;20104;-67
2023/05/07 10:32:49;;;;;;;8.57;3.08;;;;;;;23.36;54.02;99793.56;5080635;28;20066;-68
2023/05/07 10:35:27;;;;;;;13.38;4.15;;;;;;;23.40;54.00;99793.28;5093787;28;20028;-67
2023/05/07 10:37:52;;;;;;;10.80;3.22;;;;;;;23.39;54.16;99791.56;5093699;28;20027;-67
2023/05/07 10:40:20;;;;;;;14.27;4.05;;;;;;;23.39;54.13;99794.22;5093567;28;20032;-67
2023/05/07 10:43:05;;;;;;;13.00;3.50;;;;;;;23.42;53.88;99795.81;5082153;28;20024;-67
2023/05/07 10:45:32;;;;;;;11.05;3.42;;;;;;;23.42;53.88;99791.38;5073487;28;20023;-66
2023/05/07 10:48:14;;;;;;;12.50;3.33;;;;;;;23.45;53.83;99790.31;5072978;28;20017;-67
2023/05/07 10:50:41;;;;;;;11.40;3.63;;;;;;;23.43;53.93;99787.75;5072919;28;20039;-65
2023/05/07 10:53:19;;;;;;;8.75;3.17;;;;;;;23.45;53.89;99795.63;5087504;28;20069;-67
2023/05/07 10:55:47;;;;;;;8.07;3.40;;;;;;;23.45;53.79;99784.97;5093109;28;20024;-67
2023/05/07 10:58:21;;;;;;;8.98;2.95;;;;;;;23.44;53.80;99789.44;5093368;28;20027;-67
2023/05/07 11:00:47;;;;;;;9.02;3.67;;;;;;;23.46;53.85;99794.69;5093139;28;20404;-66
2023/05/07 11:03:14;;;;;;;11.20;3.78;;;;;;;23.45;53.94;99793.81;5092831;28;20044;-66
2023/05/07 11:05:40;;;;;;;9.38;2.90;;;;;;;23.47;53.92;99791.06;5091968;28;20021;-66
2023/05/07 11:08:06;;;;;;;6.40;3.03;;;;;;;23.47;53.96;99793.72;5092365;28;20026;-68
2023/05/07 11:10:58;;;;;;;6.82;2.72;;;;;;;23.46;53.91;99792.00;5075816;28;20032;-66
2023/05/07 11:13:52;;;;;;;9.82;3.42;;;;;;;23.48;53.66;99790.09;5087532;28;20097;-66
2023/05/07 11:16:18;;;;;;;9.38;2.83;;;;;;;23.50;53.59;99788.19;5079470;28;20055;-66
2023/05/07 11:18:49;;;;;;;8.40;2.83;;;;;;;23.49;53.81;99786.50;5092873;28;20024;-67
2023/05/07 11:21:35;;;;;;;11.32;3.40;;;;;;;23.49;53.64;99780.31;5093075;28;20028;-67
2023/05/07 11:24:02;;;;;;;12.93;3.07;;;;;;;23.49;53.80;99778.50;5093457;28;20020;-67
2023/05/07 11:26:49;;;;;;;11.18;3.42;;;;;;;23.49;53.55;99781.16;5093094;28;20263;-66
2023/05/07 11:29:20;;;;;;;8.68;2.80;;;;;;;23.49;53.77;99775.84;5091934;28;20085;-66